Franklin, Kentucky
Current Conditions -  °F | °C
As of 5:53 PM on Friday 28 Nov 2014 (Local Time) from KBWG Reporting Station
Clear Clear  
Wind Chill: 31°   Ceiling: Unl
Heat Index: 36°   Visibility: 10mi
Dew Point: 21°   Wind: 6mph
Humidity: 55%   Direction: 140°SE
Pressure: 30.17"   Gusts: NA
Location:  36.72°N, 86.58°W
Report Text: KBWG 282353Z AUTO 14005KT 10SM CLR 02/M06 A3017 RMK AO2 SLP221 T00221061 10072 20022 58021
Loading
Personal Weather Stations






























Interactive Weather Map New forecast layout! Learn more

10-Day Weather Forecast

Advertisements
Track Severe Weather on mobile